createdAt,value
2023-04-25T00:00:10.041Z,7.1
2023-04-25T00:03:10.705Z,7.1
2023-04-25T00:06:09.733Z,7.1
2023-04-25T00:09:09.810Z,7.1
2023-04-25T00:12:09.611Z,7
2023-04-25T00:15:09.856Z,6.9
2023-04-25T00:18:09.956Z,6.7
2023-04-25T00:21:09.717Z,6.6
2023-04-25T00:24:09.700Z,6.5
2023-04-25T00:27:09.800Z,6.4
2023-04-25T00:30:09.719Z,6.4
2023-04-25T00:33:10.002Z,6.4
2023-04-25T00:36:09.712Z,6.4
2023-04-25T00:39:09.795Z,6.4
2023-04-25T00:42:09.841Z,6.4
2023-04-25T00:45:09.701Z,6.4
2023-04-25T00:48:10.027Z,6.4
2023-04-25T00:51:09.910Z,6.5
2023-04-25T00:54:09.813Z,6.6
2023-04-25T00:57:09.727Z,6.6
2023-04-25T01:00:09.737Z,6.6
2023-04-25T01:03:11.111Z,6.6
2023-04-25T01:06:09.748Z,6.7
2023-04-25T01:09:09.745Z,6.7
2023-04-25T01:12:09.848Z,6.7
2023-04-25T01:15:09.816Z,6.7
2023-04-25T01:18:10.184Z,6.7
2023-04-25T01:21:09.653Z,6.7
2023-04-25T01:24:09.775Z,6.6
2023-04-25T01:27:09.732Z,6.7
2023-04-25T01:30:09.720Z,6.6
2023-04-25T01:33:10.314Z,6.6
2023-04-25T01:36:09.822Z,6.7
2023-04-25T01:39:09.702Z,6.6
2023-04-25T01:42:09.852Z,6.6
2023-04-25T01:45:09.752Z,6.6
2023-04-25T01:48:10.197Z,6.6
2023-04-25T01:51:09.683Z,6.6
2023-04-25T01:54:10.003Z,6.6
2023-04-25T01:57:09.703Z,6.6
2023-04-25T02:00:09.837Z,6.6
2023-04-25T02:03:10.628Z,6.6
2023-04-25T02:06:09.784Z,6.6
2023-04-25T02:09:09.720Z,6.6
2023-04-25T02:12:09.760Z,6.6
2023-04-25T02:15:09.797Z,6.6
2023-04-25T02:18:10.163Z,6.6
2023-04-25T02:21:10.945Z,6.6
2023-04-25T02:24:09.760Z,6.6
2023-04-25T02:27:09.730Z,6.6
2023-04-25T02:30:09.825Z,6.6
2023-04-25T02:33:10.227Z,6.6
2023-04-25T02:36:09.779Z,6.6
2023-04-25T02:39:09.716Z,6.7
2023-04-25T02:42:09.767Z,6.6
2023-04-25T02:45:09.792Z,6.6
2023-04-25T02:48:10.014Z,6.6
2023-04-25T02:51:09.748Z,6.6
2023-04-25T02:54:09.815Z,6.7
2023-04-25T02:57:09.661Z,6.7
2023-04-25T03:00:09.865Z,6.7
2023-04-25T03:03:10.524Z,6.6
2023-04-25T03:06:09.764Z,6.6
2023-04-25T03:09:09.688Z,6.6
2023-04-25T03:12:09.676Z,6.6
2023-04-25T03:15:09.741Z,6.6
2023-04-25T03:18:10.052Z,6.6
2023-04-25T03:21:09.718Z,6.6
2023-04-25T03:24:09.698Z,6.5
2023-04-25T03:27:09.805Z,6.5
2023-04-25T03:30:09.727Z,6.5
2023-04-25T03:33:10.189Z,6.4
2023-04-25T03:36:09.753Z,6.4
2023-04-25T03:39:09.772Z,6.2
2023-04-25T03:42:09.857Z,6.2
2023-04-25T03:45:09.792Z,6.2
2023-04-25T03:48:10.284Z,6.1
2023-04-25T03:51:09.715Z,6.1
2023-04-25T03:54:09.797Z,6.1
2023-04-25T03:57:09.661Z,6
2023-04-25T04:00:09.863Z,5.9
2023-04-25T04:03:10.833Z,5.9
2023-04-25T04:06:09.780Z,5.9
2023-04-25T04:09:09.854Z,5.9
2023-04-25T04:12:09.897Z,5.9
2023-04-25T04:15:09.739Z,5.8
2023-04-25T04:18:10.139Z,5.7
2023-04-25T04:21:09.657Z,5.6
2023-04-25T04:24:09.882Z,5.4
2023-04-25T04:27:09.755Z,5.4
2023-04-25T04:30:09.801Z,5.4
2023-04-25T04:33:10.200Z,5.4
2023-04-25T04:36:09.781Z,5.4
2023-04-25T04:39:09.830Z,5.4
2023-04-25T04:42:09.774Z,5.4
2023-04-25T04:45:09.965Z,5.5
2023-04-25T04:48:10.158Z,5.4
2023-04-25T04:51:09.804Z,5.5
2023-04-25T04:54:09.890Z,5.5
2023-04-25T04:57:09.728Z,5.6
2023-04-25T05:00:09.944Z,5.6
2023-04-25T05:03:10.654Z,5.6
2023-04-25T05:06:10.031Z,5.7
2023-04-25T05:09:09.780Z,5.7
2023-04-25T05:12:09.914Z,5.8
2023-04-25T05:15:09.815Z,5.9
2023-04-25T05:18:10.089Z,5.9
2023-04-25T05:21:09.804Z,5.9
2023-04-25T05:24:09.804Z,5.9
2023-04-25T05:27:09.849Z,5.9
2023-04-25T05:30:10.160Z,6
2023-04-25T05:33:10.171Z,6.1
2023-04-25T05:36:09.909Z,6.1
2023-04-25T05:39:09.763Z,6.2
2023-04-25T05:42:09.869Z,6.2
2023-04-25T05:45:09.710Z,6.4
2023-04-25T05:48:10.569Z,6.6
2023-04-25T05:51:09.774Z,6.6
2023-04-25T05:54:09.787Z,6.7
2023-04-25T05:57:09.758Z,6.7
2023-04-25T06:00:09.813Z,6.7
2023-04-25T06:03:11.120Z,6.8
2023-04-25T06:06:10.732Z,6.9
2023-04-25T06:09:09.780Z,7.1
2023-04-25T06:12:09.977Z,7.2
2023-04-25T06:15:31.007Z,7.9
2023-04-25T06:18:10.198Z,8.4
2023-04-25T06:21:09.763Z,8.9
2023-04-25T06:24:09.784Z,8.8
2023-04-25T06:27:09.839Z,8.6
2023-04-25T06:30:10.001Z,8.3
2023-04-25T06:33:10.121Z,8
2023-04-25T06:36:09.852Z,8.1
2023-04-25T06:39:09.724Z,8.2
2023-04-25T06:42:09.784Z,8.3
2023-04-25T06:45:09.954Z,8.4
2023-04-25T06:48:10.157Z,8.2
2023-04-25T06:51:10.677Z,8
2023-04-25T06:54:10.683Z,8.1
2023-04-25T06:57:11.542Z,8.4
2023-04-25T07:00:13.428Z,8.7
2023-04-25T07:03:11.876Z,9.1
2023-04-25T07:06:10.711Z,9.7
2023-04-25T07:09:10.132Z,9.5
2023-04-25T07:12:10.401Z,8.8
2023-04-25T07:21:10.010Z,8.1
2023-04-25T07:24:09.973Z,8.1
2023-04-25T07:27:09.987Z,7.9
2023-04-25T07:30:09.980Z,7.8
2023-04-25T07:33:10.416Z,8.3
2023-04-25T07:36:10.320Z,9.6
2023-04-25T07:39:10.251Z,10.1
2023-04-25T07:42:09.946Z,9.8
2023-04-25T07:45:09.995Z,9.5
2023-04-25T07:48:10.409Z,10.5
2023-04-25T07:51:10.001Z,10.7
2023-04-25T07:54:10.043Z,10.9
2023-04-25T07:57:10.100Z,12.2
2023-04-25T08:00:10.160Z,11.6
2023-04-25T08:03:11.253Z,11.4
2023-04-25T08:06:16.964Z,10.8
2023-04-25T08:09:09.975Z,10.4
2023-04-25T08:12:10.006Z,10.2
2023-04-25T08:15:10.050Z,9.8
2023-04-25T08:18:10.289Z,9.2
2023-04-25T08:21:09.917Z,8.8
2023-04-25T08:24:10.348Z,8.4
2023-04-25T08:27:10.032Z,10.3
2023-04-25T08:30:09.987Z,11.1
2023-04-25T08:33:10.327Z,10.6
2023-04-25T08:36:09.988Z,10
2023-04-25T08:39:09.969Z,9.3
2023-04-25T08:42:09.946Z,9
2023-04-25T08:45:13.451Z,8.9
2023-04-25T08:48:10.427Z,8.7
2023-04-25T08:54:44.705Z,8.3
2023-04-25T08:57:10.197Z,8.3
2023-04-25T09:00:09.997Z,8.5
2023-04-25T09:03:11.540Z,8.4
2023-04-25T09:06:09.978Z,8.6
2023-04-25T09:09:11.249Z,8.9
2023-04-25T09:12:10.051Z,9.3
2023-04-25T09:15:10.138Z,9.4
2023-04-25T09:18:10.451Z,9.7
2023-04-25T09:21:21.962Z,9.8
2023-04-25T09:24:09.856Z,9.8
2023-04-25T09:27:09.958Z,10.1
2023-04-25T09:30:10.219Z,10.9
2023-04-25T09:33:10.360Z,12.5
2023-04-25T09:36:09.977Z,12.6
2023-04-25T09:39:09.937Z,13.3
2023-04-25T09:42:09.947Z,12.9
2023-04-25T09:45:10.109Z,11.4
2023-04-25T09:48:10.369Z,10.3
2023-04-25T09:51:10.347Z,9.8
2023-04-25T09:54:10.080Z,9.8
2023-04-25T09:57:09.964Z,10.2
2023-04-25T10:00:10.249Z,9.8
2023-04-25T10:03:10.697Z,9.5
2023-04-25T10:06:10.227Z,9.1
2023-04-25T10:09:09.971Z,8.8
2023-04-25T10:12:09.869Z,8.7
2023-04-25T10:15:10.279Z,8.6
2023-04-25T10:18:10.341Z,8.8
2023-04-25T10:21:09.937Z,9.3
2023-04-25T10:24:10.054Z,9.7
2023-04-25T10:27:10.004Z,10.8
2023-04-25T10:30:10.168Z,12.2
2023-04-25T10:33:09.906Z,13.3
2023-04-25T10:36:10.030Z,13.9
2023-04-25T10:39:10.036Z,13.9
2023-04-25T10:42:10.048Z,14.1
2023-04-25T10:45:10.071Z,14.1
2023-04-25T10:48:10.216Z,14.6
2023-04-25T10:51:09.901Z,13.3
2023-04-25T10:54:09.940Z,12.4
2023-04-25T10:57:10.003Z,12.1
2023-04-25T11:00:10.190Z,11.1
2023-04-25T11:06:09.882Z,10.4
2023-04-25T11:09:09.995Z,11
2023-04-25T11:12:10.054Z,11.7
2023-04-25T11:15:10.185Z,11.9
2023-04-25T11:18:11.017Z,11.5
2023-04-25T11:21:09.929Z,10.6
2023-04-25T11:24:09.972Z,10.2
2023-04-25T11:27:10.031Z,10.1
2023-04-25T11:30:10.240Z,10.4
2023-04-25T11:33:10.276Z,10.3
2023-04-25T11:36:10.154Z,10.2
2023-04-25T11:39:10.595Z,9.8
2023-04-25T11:42:17.888Z,9.6
2023-04-25T11:45:09.917Z,9.6
2023-04-25T11:48:10.257Z,9.6
2023-04-25T11:51:10.102Z,9.7
2023-04-25T11:54:09.876Z,9.8
2023-04-25T11:57:10.005Z,9.8
2023-04-25T12:00:10.125Z,9.9
2023-04-25T12:03:11.065Z,10.1
2023-04-25T12:06:11.916Z,10.4
2023-04-25T12:09:10.077Z,10.5
2023-04-25T12:12:09.934Z,10.7
2023-04-25T12:15:10.048Z,11.1
2023-04-25T12:18:10.298Z,11.9
2023-04-25T12:21:09.995Z,12.2
2023-04-25T12:24:09.996Z,11.5
2023-04-25T12:27:10.655Z,11.2
2023-04-25T12:30:10.144Z,11.3
2023-04-25T12:33:10.385Z,11.5
2023-04-25T12:36:11.760Z,12.7
2023-04-25T12:39:09.880Z,13.1
2023-04-25T12:42:13.348Z,12.8
2023-04-25T12:45:10.095Z,12.4
2023-04-25T12:48:13.336Z,11.7
2023-04-25T12:51:09.900Z,10.8
2023-04-25T12:54:09.897Z,10.1
2023-04-25T12:57:10.026Z,9.7
2023-04-25T13:00:10.356Z,9.4
2023-04-25T13:03:11.126Z,8.9
2023-04-25T13:06:09.930Z,8.7
2023-04-25T13:09:10.059Z,8.6
2023-04-25T13:12:09.920Z,8.6
2023-04-25T13:15:09.996Z,8.8
2023-04-25T13:18:10.212Z,9.1
2023-04-25T13:21:10.091Z,9.4
2023-04-25T13:24:09.979Z,10.1
2023-04-25T13:27:09.917Z,10.9
2023-04-25T13:30:10.039Z,11.9
2023-04-25T13:33:10.398Z,12.4
2023-04-25T13:36:10.015Z,12.2
2023-04-25T13:39:10.038Z,12.1
2023-04-25T13:42:09.906Z,11.9
2023-04-25T13:45:09.976Z,12.4
2023-04-25T13:48:10.450Z,12.4
2023-04-25T13:51:09.876Z,12.1
2023-04-25T13:54:10.055Z,11.8
2023-04-25T13:57:09.900Z,11.7
2023-04-25T14:00:09.957Z,11.4
2023-04-25T14:03:11.487Z,11.1
2023-04-25T14:06:09.989Z,10.9
2023-04-25T14:09:10.141Z,11.1
2023-04-25T14:12:09.936Z,11.1
2023-04-25T14:15:10.116Z,10.9
2023-04-25T14:18:10.490Z,10.4
2023-04-25T14:21:09.980Z,10.1
2023-04-25T14:24:09.927Z,9.9
2023-04-25T14:27:09.882Z,9.7
2023-04-25T14:30:10.086Z,9.6
2023-04-25T14:33:10.404Z,9.5
2023-04-25T14:36:09.912Z,9.6
2023-04-25T14:39:09.970Z,9.5
2023-04-25T14:42:10.181Z,9.6
2023-04-25T14:45:10.006Z,9.6
2023-04-25T14:48:10.855Z,9.7
2023-04-25T14:51:09.974Z,9.9
2023-04-25T14:54:09.992Z,10.3
2023-04-25T14:57:10.012Z,10.4
2023-04-25T15:00:10.232Z,10.6
2023-04-25T15:03:11.129Z,11.1
2023-04-25T15:06:09.913Z,10.8
2023-04-25T15:09:09.950Z,10.3
2023-04-25T15:12:09.943Z,9.9
2023-04-25T15:15:09.992Z,9.6
2023-04-25T15:18:10.135Z,9.2
2023-04-25T15:21:09.965Z,8.7
2023-04-25T15:24:09.797Z,8.3
2023-04-25T15:27:09.970Z,8.2
2023-04-25T15:30:09.917Z,8.1
2023-04-25T15:33:10.530Z,8.1
2023-04-25T15:36:09.961Z,8.1
2023-04-25T15:39:09.929Z,8.3
2023-04-25T15:42:09.962Z,8.4
2023-04-25T15:45:10.018Z,8.6
2023-04-25T15:48:10.295Z,8.9
2023-04-25T15:51:09.905Z,9.4
2023-04-25T15:54:09.886Z,9.7
2023-04-25T15:57:10.324Z,9.8
2023-04-25T16:00:10.155Z,10.1
2023-04-25T16:03:11.005Z,9.6
2023-04-25T16:06:10.253Z,9.5
2023-04-25T16:09:09.948Z,9.1
2023-04-25T16:12:10.029Z,8.9
2023-04-25T16:15:09.963Z,8.8
2023-04-25T16:18:10.300Z,8.8
2023-04-25T16:21:09.933Z,8.7
2023-04-25T16:24:09.981Z,8.4
2023-04-25T16:27:10.010Z,8
2023-04-25T16:30:10.065Z,7.7
2023-04-25T16:33:10.270Z,7.4
2023-04-25T16:36:09.970Z,7.1
2023-04-25T16:39:10.283Z,7.1
2023-04-25T16:42:13.518Z,7.3
2023-04-25T16:45:09.872Z,7.6
2023-04-25T16:48:10.494Z,7.6
2023-04-25T16:51:10.011Z,7.6
2023-04-25T16:54:10.079Z,7.3
2023-04-25T16:57:09.919Z,7
2023-04-25T17:00:10.079Z,6.9
2023-04-25T17:03:11.061Z,6.9
2023-04-25T17:06:09.906Z,6.8
2023-04-25T17:09:09.872Z,6.9
2023-04-25T17:12:10.025Z,6.9
2023-04-25T17:15:09.969Z,6.9
2023-04-25T17:18:10.219Z,7
2023-04-25T17:21:10.176Z,6.9
2023-04-25T17:24:09.985Z,6.4
2023-04-25T17:27:09.880Z,6.1
2023-04-25T17:30:10.002Z,6
2023-04-25T17:33:10.321Z,5.9
2023-04-25T17:36:09.964Z,6
2023-04-25T17:39:10.157Z,6.1
2023-04-25T17:42:10.049Z,6.1
2023-04-25T17:45:10.036Z,5.9
2023-04-25T17:48:10.289Z,5.9
2023-04-25T17:51:09.888Z,5.9
2023-04-25T17:54:09.908Z,5.9
2023-04-25T17:57:09.913Z,5.9
2023-04-25T18:00:12.548Z,6.1
2023-04-25T18:03:10.733Z,6.2
2023-04-25T18:06:09.975Z,6.2
2023-04-25T18:09:09.892Z,6.2
2023-04-25T18:12:09.892Z,6.2
2023-04-25T18:15:10.038Z,6.2
2023-04-25T18:18:10.319Z,6.3
2023-04-25T18:21:10.320Z,6.4
2023-04-25T18:24:09.990Z,6.5
2023-04-25T18:27:09.876Z,6.4
2023-04-25T18:30:10.005Z,6.2
2023-04-25T18:33:10.296Z,5.9
2023-04-25T18:36:09.870Z,5.7
2023-04-25T18:39:31.590Z,5.6
2023-04-25T18:42:15.785Z,5.4
2023-04-25T18:45:09.892Z,5.3
2023-04-25T18:48:11.687Z,5.2
2023-04-25T18:51:10.131Z,5.2
2023-04-25T18:54:09.792Z,5.2
2023-04-25T18:57:10.055Z,5.2
2023-04-25T19:00:09.931Z,5.1
2023-04-25T19:03:10.670Z,5.1
2023-04-25T19:06:09.886Z,5.1
2023-04-25T19:09:09.886Z,5.1
2023-04-25T19:12:09.919Z,5
2023-04-25T19:15:09.916Z,5
2023-04-25T19:18:10.224Z,4.9
2023-04-25T19:21:09.842Z,4.9
2023-04-25T19:24:09.866Z,4.9
2023-04-25T19:27:09.871Z,4.9
2023-04-25T19:30:09.870Z,4.8
2023-04-25T19:33:10.475Z,4.8
2023-04-25T19:36:09.931Z,4.7
2023-04-25T19:39:09.985Z,4.7
2023-04-25T19:42:09.920Z,4.6
2023-04-25T19:45:09.855Z,4.6
2023-04-25T19:48:10.308Z,4.4
2023-04-25T19:51:09.810Z,4.2
2023-04-25T19:54:10.019Z,4.2
2023-04-25T19:57:09.925Z,4.1
2023-04-25T20:00:09.845Z,4.1
2023-04-25T20:03:10.627Z,4.2
2023-04-25T20:06:09.803Z,4.4
2023-04-25T20:09:09.859Z,4.4
2023-04-25T20:12:09.916Z,4.4
2023-04-25T20:15:09.989Z,4.4
2023-04-25T20:18:10.106Z,4.4
2023-04-25T20:21:09.849Z,4.2
2023-04-25T20:24:09.854Z,4.2
2023-04-25T20:27:09.920Z,4.1
2023-04-25T20:30:09.976Z,4.1
2023-04-25T20:33:10.169Z,4
2023-04-25T20:36:09.923Z,4
2023-04-25T20:39:09.825Z,4.1
2023-04-25T20:42:09.873Z,4.2
2023-04-25T20:45:10.392Z,4.2
2023-04-25T20:48:10.146Z,4.2
2023-04-25T20:51:09.850Z,4.1
2023-04-25T20:54:11.277Z,3.9
2023-04-25T20:57:09.823Z,3.8
2023-04-25T21:00:09.938Z,3.7
2023-04-25T21:03:11.022Z,3.7
2023-04-25T21:06:09.912Z,3.6
2023-04-25T21:09:09.788Z,3.6
2023-04-25T21:12:09.917Z,3.5
2023-04-25T21:15:09.882Z,3.4
2023-04-25T21:18:10.258Z,3.4
2023-04-25T21:21:09.945Z,3.3
2023-04-25T21:24:09.809Z,3.2
2023-04-25T21:27:09.882Z,3.2
2023-04-25T21:30:09.890Z,3.3
2023-04-25T21:33:10.265Z,3.4
2023-04-25T21:36:09.925Z,3.4
2023-04-25T21:39:09.798Z,3.4
2023-04-25T21:42:09.886Z,3.4
2023-04-25T21:45:09.918Z,3.5
2023-04-25T21:48:10.204Z,3.6
2023-04-25T21:51:09.844Z,3.7
2023-04-25T21:54:10.109Z,3.8
2023-04-25T21:57:09.960Z,3.9
2023-04-25T22:00:10.699Z,4
2023-04-25T22:03:10.983Z,4
2023-04-25T22:06:09.897Z,3.9
2023-04-25T22:09:09.935Z,3.9
2023-04-25T22:12:09.870Z,3.9
2023-04-25T22:15:09.885Z,3.9
2023-04-25T22:18:10.361Z,3.8
2023-04-25T22:21:09.893Z,3.8
2023-04-25T22:24:09.844Z,3.9
2023-04-25T22:27:09.851Z,3.9
2023-04-25T22:30:09.910Z,3.9
2023-04-25T22:33:10.181Z,3.9
2023-04-25T22:36:09.950Z,3.9
2023-04-25T22:39:09.905Z,3.9
2023-04-25T22:42:09.890Z,3.9
2023-04-25T22:45:09.886Z,3.8
2023-04-25T22:48:10.177Z,3.7
2023-04-25T22:51:09.913Z,3.7
2023-04-25T22:54:09.886Z,3.6
2023-04-25T22:57:09.797Z,3.6
2023-04-25T23:00:09.885Z,3.4
2023-04-25T23:03:11.026Z,3.4
2023-04-25T23:06:09.907Z,3.2
2023-04-25T23:09:09.839Z,3.1
2023-04-25T23:12:09.924Z,3.1
2023-04-25T23:15:10.129Z,3.1
2023-04-25T23:18:10.180Z,2.9
2023-04-25T23:21:09.873Z,2.9
2023-04-25T23:24:09.870Z,2.9
2023-04-25T23:27:09.820Z,2.7
2023-04-25T23:30:09.882Z,2.7
2023-04-25T23:33:10.317Z,2.7
2023-04-25T23:36:09.813Z,2.7
2023-04-25T23:39:10.342Z,2.7
2023-04-25T23:42:09.832Z,2.6
2023-04-25T23:45:09.999Z,2.6
2023-04-25T23:48:10.298Z,2.6
2023-04-25T23:51:09.927Z,2.6
2023-04-25T23:54:11.934Z,2.6
2023-04-25T23:57:09.871Z,2.5
